createdAt,value
2019-04-04T00:01:01.000Z,958.7
2019-04-04T00:02:23.000Z,958.8
2019-04-04T00:03:46.000Z,958.7
2019-04-04T00:06:30.000Z,958.7
2019-04-04T00:07:53.000Z,958.6
2019-04-04T00:10:28.000Z,958.7
2019-04-04T00:11:41.000Z,958.6
2019-04-04T00:13:03.000Z,958.6
2019-04-04T00:15:48.000Z,958.6
2019-04-04T00:17:10.000Z,958.6
2019-04-04T00:18:33.000Z,958.5
2019-04-04T00:19:55.000Z,958.6
2019-04-04T00:21:17.000Z,958.6
2019-04-04T00:24:02.000Z,958.6
2019-04-04T00:26:28.000Z,958.5
2019-04-04T00:27:50.000Z,958.6
2019-04-04T00:29:12.000Z,958.5
2019-04-04T00:30:35.000Z,958.5
2019-04-04T00:31:57.000Z,958.4
2019-04-04T00:33:19.000Z,958.5
2019-04-04T00:34:42.000Z,958.5
2019-04-04T00:36:04.000Z,958.5
2019-04-04T00:37:26.000Z,958.6
2019-04-04T00:38:49.000Z,958.5
2019-04-04T00:41:15.000Z,958.5
2019-04-04T00:42:37.000Z,958.5
2019-04-04T00:43:59.000Z,958.5
2019-04-04T00:45:21.000Z,958.5
2019-04-04T00:46:44.000Z,958.4
2019-04-04T00:48:06.000Z,958.4
2019-04-04T00:50:51.000Z,958.4
2019-04-04T00:52:13.000Z,958.4
2019-04-04T00:53:35.000Z,958.4
2019-04-04T00:54:48.000Z,958.3
2019-04-04T00:56:01.000Z,958.3
2019-04-04T00:57:24.000Z,958.4
2019-04-04T00:58:46.000Z,958.4
2019-04-04T01:00:08.000Z,958.4
2019-04-04T01:01:31.000Z,958.5
2019-04-04T01:02:53.000Z,958.5
2019-04-04T01:04:15.000Z,958.5
2019-04-04T01:08:22.000Z,958.4
2019-04-04T01:09:35.000Z,958.3
2019-04-04T01:10:48.000Z,958.3
2019-04-04T01:12:10.000Z,958.3
2019-04-04T01:16:17.000Z,958.2
2019-04-04T01:17:40.000Z,958.3
2019-04-04T01:21:47.000Z,958.3
2019-04-04T01:24:22.000Z,958.3
2019-04-04T01:25:35.000Z,958.3
2019-04-04T01:26:57.000Z,958.3
2019-04-04T01:28:19.000Z,958.3
2019-04-04T01:29:42.000Z,958.2
2019-04-04T01:31:04.000Z,958.2
2019-04-04T01:32:26.000Z,958.3
2019-04-04T01:33:49.000Z,958.2
2019-04-04T01:35:11.000Z,958.2
2019-04-04T01:36:33.000Z,958.2
2019-04-04T01:37:56.000Z,958.2
2019-04-04T01:39:09.000Z,958.2
2019-04-04T01:40:22.000Z,958.2
2019-04-04T01:43:06.000Z,958.1
2019-04-04T01:44:29.000Z,958.2
2019-04-04T01:45:51.000Z,958.2
2019-04-04T01:47:13.000Z,958.2
2019-04-04T01:48:36.000Z,958.1
2019-04-04T01:52:42.000Z,958
2019-04-04T01:55:08.000Z,958
2019-04-04T01:56:31.000Z,957.9
2019-04-04T01:57:53.000Z,957.9
2019-04-04T01:59:15.000Z,957.8
2019-04-04T02:02:00.000Z,957.8
2019-04-04T02:03:22.000Z,957.8
2019-04-04T02:06:07.000Z,957.7
2019-04-04T02:07:29.000Z,957.7
2019-04-04T02:09:55.000Z,957.7
2019-04-04T02:11:17.000Z,957.7
2019-04-04T02:12:40.000Z,957.7
2019-04-04T02:14:02.000Z,957.7
2019-04-04T02:15:24.000Z,957.7
2019-04-04T02:16:47.000Z,957.6
2019-04-04T02:19:31.000Z,957.6
2019-04-04T02:20:54.000Z,957.5
2019-04-04T02:22:16.000Z,957.5
2019-04-04T02:23:29.000Z,957.6
2019-04-04T02:24:42.000Z,957.5
2019-04-04T02:26:04.000Z,957.5
2019-04-04T02:27:27.000Z,957.5
2019-04-04T02:28:49.000Z,957.5
2019-04-04T02:30:11.000Z,957.4
2019-04-04T02:31:34.000Z,957.4
2019-04-04T02:32:56.000Z,957.4
2019-04-04T02:34:18.000Z,957.4
2019-04-04T02:35:40.000Z,957.4
2019-04-04T02:37:03.000Z,957.4
2019-04-04T02:38:16.000Z,957.4
2019-04-04T02:39:29.000Z,957.4
2019-04-04T02:40:51.000Z,957.4
2019-04-04T02:42:13.000Z,957.4
2019-04-04T02:43:36.000Z,957.3
2019-04-04T02:44:58.000Z,957.3
2019-04-04T02:46:20.000Z,957.3
2019-04-04T02:49:05.000Z,957.3
2019-04-04T02:50:27.000Z,957.2
2019-04-04T02:51:50.000Z,957.3
2019-04-04T02:53:03.000Z,957.2
2019-04-04T02:54:15.000Z,957.3
2019-04-04T02:55:38.000Z,957.3
2019-04-04T02:57:00.000Z,957.2
2019-04-04T02:58:22.000Z,957.1
2019-04-04T02:59:45.000Z,957.1
2019-04-04T03:02:29.000Z,957.1
2019-04-04T03:03:52.000Z,957.2
2019-04-04T03:05:14.000Z,957.2
2019-04-04T03:09:02.000Z,957.2
2019-04-04T03:10:25.000Z,957.2
2019-04-04T03:13:09.000Z,957.1
2019-04-04T03:14:32.000Z,957.2
2019-04-04T03:15:54.000Z,957.2
2019-04-04T03:17:16.000Z,957.1
2019-04-04T03:20:01.000Z,957.1
2019-04-04T03:22:36.000Z,957
2019-04-04T03:23:49.000Z,957
2019-04-04T03:25:11.000Z,956.9
2019-04-04T03:26:34.000Z,956.9
2019-04-04T03:27:56.000Z,956.9
2019-04-04T03:29:18.000Z,956.9
2019-04-04T03:30:41.000Z,957
2019-04-04T03:33:25.000Z,956.9
2019-04-04T03:34:48.000Z,956.9
2019-04-04T03:36:10.000Z,956.8
2019-04-04T03:37:23.000Z,956.8
2019-04-04T03:38:36.000Z,956.8
2019-04-04T03:39:58.000Z,956.8
2019-04-04T03:41:20.000Z,956.8
2019-04-04T03:42:43.000Z,956.8
2019-04-04T03:44:05.000Z,956.8
2019-04-04T03:45:27.000Z,956.7
2019-04-04T03:46:50.000Z,956.7
2019-04-04T03:48:12.000Z,956.7
2019-04-04T03:50:57.000Z,956.6
2019-04-04T03:52:10.000Z,956.6
2019-04-04T03:53:23.000Z,956.6
2019-04-04T03:54:45.000Z,956.6
2019-04-04T03:56:07.000Z,956.5
2019-04-04T03:57:30.000Z,956.5
2019-04-04T03:58:52.000Z,956.4
2019-04-04T04:01:36.000Z,956.4
2019-04-04T04:02:59.000Z,956.4
2019-04-04T04:04:21.000Z,956.4
2019-04-04T04:05:43.000Z,956.4
2019-04-04T04:06:56.000Z,956.4
2019-04-04T04:08:09.000Z,956.3
2019-04-04T04:09:32.000Z,956.3
2019-04-04T04:10:54.000Z,956.3
2019-04-04T04:12:16.000Z,956.2
2019-04-04T04:13:39.000Z,956.2
2019-04-04T04:15:01.000Z,956.2
2019-04-04T04:16:23.000Z,956.2
2019-04-04T04:17:46.000Z,956.1
2019-04-04T04:19:08.000Z,956.1
2019-04-04T04:20:30.000Z,956.1
2019-04-04T04:22:56.000Z,956.1
2019-04-04T04:24:18.000Z,956
2019-04-04T04:25:41.000Z,956
2019-04-04T04:28:25.000Z,956.1
2019-04-04T04:29:48.000Z,956.1
2019-04-04T04:31:10.000Z,956.1
2019-04-04T04:32:32.000Z,956.1
2019-04-04T04:33:55.000Z,956.1
2019-04-04T04:35:17.000Z,956.1
2019-04-04T04:36:30.000Z,956.1
2019-04-04T04:37:43.000Z,956.1
2019-04-04T04:39:05.000Z,956.1
2019-04-04T04:40:28.000Z,956
2019-04-04T04:41:50.000Z,956.1
2019-04-04T04:43:12.000Z,956.1
2019-04-04T04:44:34.000Z,956
2019-04-04T04:45:57.000Z,956.1
2019-04-04T04:47:19.000Z,956
2019-04-04T04:48:41.000Z,956.1
2019-04-04T04:50:04.000Z,956
2019-04-04T04:52:30.000Z,956
2019-04-04T04:55:14.000Z,955.8
2019-04-04T04:56:37.000Z,955.8
2019-04-04T04:57:59.000Z,955.8
2019-04-04T04:59:21.000Z,955.8
2019-04-04T05:00:44.000Z,955.7
2019-04-04T05:03:28.000Z,955.7
2019-04-04T05:04:51.000Z,955.7
2019-04-04T05:06:03.000Z,955.7
2019-04-04T05:07:16.000Z,955.7
2019-04-04T05:08:39.000Z,955.7
2019-04-04T05:10:01.000Z,955.7
2019-04-04T05:11:23.000Z,955.7
2019-04-04T05:12:46.000Z,955.7
2019-04-04T05:14:08.000Z,955.8
2019-04-04T05:15:30.000Z,955.8
2019-04-04T05:16:53.000Z,955.8
2019-04-04T05:18:15.000Z,955.7
2019-04-04T05:19:37.000Z,955.7
2019-04-04T05:20:50.000Z,955.7
2019-04-04T05:22:03.000Z,955.7
2019-04-04T05:23:26.000Z,955.8
2019-04-04T05:24:48.000Z,955.7
2019-04-04T05:26:10.000Z,955.7
2019-04-04T05:27:32.000Z,955.6
2019-04-04T05:30:17.000Z,955.6
2019-04-04T05:31:39.000Z,955.5
2019-04-04T05:33:02.000Z,955.5
2019-04-04T05:34:24.000Z,955.5
2019-04-04T05:36:50.000Z,955.5
2019-04-04T05:38:12.000Z,955.5
2019-04-04T05:39:35.000Z,955.4
2019-04-04T05:40:57.000Z,955.4
2019-04-04T05:42:19.000Z,955.3
2019-04-04T05:43:42.000Z,955.4
2019-04-04T05:45:04.000Z,955.4
2019-04-04T05:46:26.000Z,955.4
2019-04-04T05:47:49.000Z,955.4
2019-04-04T05:49:11.000Z,955.5
2019-04-04T05:50:24.000Z,955.4
2019-04-04T05:52:59.000Z,955.3
2019-04-04T05:54:21.000Z,955.2
2019-04-04T05:55:44.000Z,955.2
2019-04-04T05:57:06.000Z,955.1
2019-04-04T05:58:28.000Z,955.1
2019-04-04T05:59:51.000Z,955.1
2019-04-04T06:01:13.000Z,955.2
2019-04-04T06:02:35.000Z,955.1
2019-04-04T06:03:58.000Z,955.1
2019-04-04T06:05:11.000Z,955.1
2019-04-04T06:06:24.000Z,955.1
2019-04-04T06:07:46.000Z,955.1
2019-04-04T06:09:08.000Z,955
2019-04-04T06:10:30.000Z,955
2019-04-04T06:11:53.000Z,954.9
2019-04-04T06:14:37.000Z,954.9
2019-04-04T06:18:44.000Z,954.9
2019-04-04T06:28:02.000Z,954.7
2019-04-04T06:32:09.000Z,954.5
2019-04-04T06:34:44.000Z,954.6
2019-04-04T07:08:15.000Z,953.9
2019-04-04T07:13:45.000Z,953.8
2019-04-04T07:27:09.000Z,953.7
2019-04-04T07:48:38.000Z,953.6
2019-04-04T07:56:43.000Z,953.4
2019-04-04T07:58:05.000Z,953.3
2019-04-04T08:00:49.000Z,953.3
2019-04-04T08:02:12.000Z,953.3
2019-04-04T08:04:38.000Z,953.4
2019-04-04T08:06:00.000Z,953.5
2019-04-04T08:07:22.000Z,953.4
2019-04-04T08:08:45.000Z,953.5
2019-04-04T08:10:07.000Z,953.5
2019-04-04T08:15:36.000Z,953.4
2019-04-04T08:18:12.000Z,953.4
2019-04-04T08:20:47.000Z,953.3
2019-04-04T08:22:09.000Z,953.2
2019-04-04T08:23:31.000Z,953.2
2019-04-04T08:24:54.000Z,953.2
2019-04-04T08:26:16.000Z,953.1
2019-04-04T08:27:38.000Z,953.1
2019-04-04T08:29:01.000Z,953.2
2019-04-04T08:30:23.000Z,953.3
2019-04-04T08:32:58.000Z,953.2
2019-04-04T08:34:11.000Z,953.2
2019-04-04T08:35:34.000Z,953.2
2019-04-04T08:36:56.000Z,953.2
2019-04-04T08:38:18.000Z,953.2
2019-04-04T08:39:41.000Z,953.3
2019-04-04T08:41:03.000Z,953.2
2019-04-04T08:42:25.000Z,953.2
2019-04-04T08:45:10.000Z,953.2
2019-04-04T08:46:32.000Z,953.2
2019-04-04T08:50:20.000Z,953.2
2019-04-04T08:51:43.000Z,953.2
2019-04-04T08:54:27.000Z,953.1
2019-04-04T08:58:34.000Z,953.1
2019-04-04T08:59:57.000Z,953.1
2019-04-04T09:02:32.000Z,953.1
2019-04-04T09:03:45.000Z,953.2
2019-04-04T09:05:07.000Z,953.1
2019-04-04T09:06:29.000Z,953
2019-04-04T09:07:52.000Z,953
2019-04-04T09:09:14.000Z,953
2019-04-04T09:10:36.000Z,953
2019-04-04T09:11:59.000Z,953
2019-04-04T09:13:21.000Z,953.1
2019-04-04T09:14:43.000Z,953.1
2019-04-04T09:16:06.000Z,953.1
2019-04-04T09:18:32.000Z,953
2019-04-04T09:21:16.000Z,953
2019-04-04T09:25:23.000Z,953
2019-04-04T09:26:46.000Z,953
2019-04-04T09:28:08.000Z,952.9
2019-04-04T09:29:30.000Z,952.9
2019-04-04T09:30:52.000Z,952.9
2019-04-04T09:32:05.000Z,952.8
2019-04-04T09:33:18.000Z,952.9
2019-04-04T09:34:41.000Z,952.9
2019-04-04T09:36:03.000Z,952.8
2019-04-04T09:37:25.000Z,952.8
2019-04-04T09:38:48.000Z,952.7
2019-04-04T09:40:10.000Z,952.7
2019-04-04T09:41:32.000Z,952.7
2019-04-04T09:42:55.000Z,952.7
2019-04-04T09:44:17.000Z,952.7
2019-04-04T09:46:52.000Z,952.6
2019-04-04T09:48:05.000Z,952.6
2019-04-04T09:49:27.000Z,952.8
2019-04-04T09:50:50.000Z,952.9
2019-04-04T09:52:12.000Z,952.8
2019-04-04T09:53:34.000Z,952.8
2019-04-04T09:54:57.000Z,952.8
2019-04-04T09:56:19.000Z,952.8
2019-04-04T09:57:41.000Z,952.8
2019-04-04T09:59:04.000Z,952.8
2019-04-04T10:00:26.000Z,952.8
2019-04-04T10:01:39.000Z,952.9
2019-04-04T10:04:14.000Z,952.8
2019-04-04T10:06:59.000Z,952.9
2019-04-04T10:08:21.000Z,952.8
2019-04-04T10:09:44.000Z,952.8
2019-04-04T10:11:06.000Z,952.8
2019-04-04T10:12:28.000Z,952.8
2019-04-04T10:13:50.000Z,952.9
2019-04-04T10:15:13.000Z,952.9
2019-04-04T10:16:26.000Z,952.9
2019-04-04T10:17:39.000Z,953
2019-04-04T10:19:01.000Z,952.9
2019-04-04T10:20:23.000Z,953
2019-04-04T10:21:46.000Z,953
2019-04-04T10:23:08.000Z,953
2019-04-04T10:25:53.000Z,953
2019-04-04T10:27:15.000Z,953
2019-04-04T10:28:37.000Z,953.1
2019-04-04T10:30:00.000Z,953.1
2019-04-04T10:31:13.000Z,953.2
2019-04-04T10:32:25.000Z,953.1
2019-04-04T10:33:48.000Z,953.1
2019-04-04T10:35:10.000Z,953.2
2019-04-04T10:36:32.000Z,953.2
2019-04-04T10:37:55.000Z,953.2
2019-04-04T10:39:17.000Z,953.1
2019-04-04T10:40:39.000Z,953
2019-04-04T10:42:02.000Z,953
2019-04-04T10:43:24.000Z,953
2019-04-04T10:44:46.000Z,953.1
2019-04-04T10:45:59.000Z,953.1
2019-04-04T10:47:12.000Z,953.1
2019-04-04T10:48:35.000Z,953.1
2019-04-04T10:49:57.000Z,953.1
2019-04-04T10:51:19.000Z,953.1
2019-04-04T10:52:42.000Z,953.1
2019-04-04T10:54:04.000Z,953.1
2019-04-04T10:55:26.000Z,953.1
2019-04-04T10:56:48.000Z,953.1
2019-04-04T10:58:11.000Z,953.1
2019-04-04T10:59:33.000Z,953
2019-04-04T11:00:46.000Z,953.1
2019-04-04T11:01:59.000Z,953
2019-04-04T11:03:21.000Z,953
2019-04-04T11:04:44.000Z,953
2019-04-04T11:06:06.000Z,953
2019-04-04T11:07:28.000Z,953
2019-04-04T11:08:51.000Z,953
2019-04-04T11:10:13.000Z,953
2019-04-04T11:11:35.000Z,952.9
2019-04-04T11:12:58.000Z,952.9
2019-04-04T11:14:20.000Z,952.9
2019-04-04T11:15:33.000Z,952.9
2019-04-04T11:16:46.000Z,952.9
2019-04-04T11:18:08.000Z,952.9
2019-04-04T11:20:53.000Z,952.9
2019-04-04T11:22:15.000Z,953
2019-04-04T11:23:37.000Z,952.8
2019-04-04T11:25:00.000Z,952.9
2019-04-04T11:26:22.000Z,952.9
2019-04-04T11:27:44.000Z,952.8
2019-04-04T11:29:07.000Z,952.8
2019-04-04T11:30:20.000Z,952.8
2019-04-04T11:31:33.000Z,952.9
2019-04-04T11:32:55.000Z,952.8
2019-04-04T11:34:17.000Z,952.8
2019-04-04T11:35:40.000Z,952.6
2019-04-04T11:37:02.000Z,952.7
2019-04-04T11:38:24.000Z,952.6
2019-04-04T11:39:46.000Z,952.7
2019-04-04T11:41:09.000Z,952.7
2019-04-04T11:42:31.000Z,952.7
2019-04-04T11:43:53.000Z,952.7
2019-04-04T11:45:06.000Z,952.7
2019-04-04T11:46:19.000Z,952.6
2019-04-04T11:47:42.000Z,952.6
2019-04-04T11:49:04.000Z,952.6
2019-04-04T11:51:49.000Z,952.6
2019-04-04T11:53:11.000Z,952.7
2019-04-04T11:54:33.000Z,952.6
2019-04-04T11:55:56.000Z,952.8
2019-04-04T11:57:18.000Z,952.7
2019-04-04T11:58:40.000Z,952.7
2019-04-04T11:59:53.000Z,952.7
2019-04-04T12:01:06.000Z,952.6
2019-04-04T12:02:28.000Z,952.6
2019-04-04T12:05:13.000Z,952.6
2019-04-04T12:07:58.000Z,952.6
2019-04-04T12:09:20.000Z,952.6
2019-04-04T12:10:42.000Z,952.6
2019-04-04T12:12:05.000Z,952.6
2019-04-04T12:14:40.000Z,952.6
2019-04-04T12:15:53.000Z,952.6
2019-04-04T12:17:15.000Z,952.6
2019-04-04T12:18:38.000Z,952.6
2019-04-04T12:20:00.000Z,952.7
2019-04-04T12:21:22.000Z,952.6
2019-04-04T12:22:44.000Z,952.6
2019-04-04T12:24:07.000Z,952.7
2019-04-04T12:25:29.000Z,952.7
2019-04-04T12:26:51.000Z,952.6
2019-04-04T12:28:14.000Z,952.7
2019-04-04T12:29:27.000Z,952.7
2019-04-04T12:32:02.000Z,952.7
2019-04-04T12:33:24.000Z,952.6
2019-04-04T12:36:09.000Z,952.6
2019-04-04T12:37:31.000Z,952.6
2019-04-04T12:38:54.000Z,952.6
2019-04-04T12:40:16.000Z,952.6
2019-04-04T12:41:38.000Z,952.6
2019-04-04T12:43:01.000Z,952.6
2019-04-04T12:44:13.000Z,952.6
2019-04-04T12:46:49.000Z,952.6
2019-04-04T12:48:11.000Z,952.6
2019-04-04T12:49:33.000Z,952.6
2019-04-04T12:50:56.000Z,952.6
2019-04-04T12:52:18.000Z,952.6
2019-04-04T12:53:40.000Z,952.5
2019-04-04T12:55:03.000Z,952.5
2019-04-04T12:56:25.000Z,952.6
2019-04-04T12:57:47.000Z,952.5
2019-04-04T12:59:00.000Z,952.5
2019-04-04T13:00:13.000Z,952.5
2019-04-04T13:01:36.000Z,952.5
2019-04-04T13:02:58.000Z,952.5
2019-04-04T13:04:20.000Z,952.6
2019-04-04T13:05:42.000Z,952.6
2019-04-04T13:07:05.000Z,952.6
2019-04-04T13:08:27.000Z,952.7
2019-04-04T13:09:49.000Z,952.7
2019-04-04T13:11:12.000Z,952.7
2019-04-04T13:12:34.000Z,952.7
2019-04-04T13:13:47.000Z,952.6
2019-04-04T13:15:00.000Z,952.6
2019-04-04T13:16:22.000Z,952.6
2019-04-04T13:17:45.000Z,952.6
2019-04-04T13:19:07.000Z,952.6
2019-04-04T13:20:29.000Z,952.7
2019-04-04T13:21:52.000Z,952.6
2019-04-04T13:23:14.000Z,952.6
2019-04-04T13:24:36.000Z,952.6
2019-04-04T13:25:59.000Z,952.6
2019-04-04T13:27:21.000Z,952.6
2019-04-04T13:28:34.000Z,952.6
2019-04-04T13:29:47.000Z,952.6
2019-04-04T13:31:09.000Z,952.6
2019-04-04T13:32:31.000Z,952.6
2019-04-04T13:33:54.000Z,952.6
2019-04-04T13:35:16.000Z,952.6
2019-04-04T13:38:01.000Z,952.6
2019-04-04T13:39:23.000Z,952.6
2019-04-04T13:40:45.000Z,952.6
2019-04-04T13:42:08.000Z,952.5
2019-04-04T13:43:21.000Z,952.5
2019-04-04T13:44:34.000Z,952.5
2019-04-04T13:45:56.000Z,952.6
2019-04-04T13:47:18.000Z,952.6
2019-04-04T13:48:40.000Z,952.5
2019-04-04T13:50:03.000Z,952.6
2019-04-04T13:51:25.000Z,952.6
2019-04-04T13:52:47.000Z,952.6
2019-04-04T13:54:10.000Z,952.6
2019-04-04T13:55:32.000Z,952.6
2019-04-04T13:56:54.000Z,952.7
2019-04-04T13:58:07.000Z,952.7
2019-04-04T14:00:43.000Z,952.7
2019-04-04T14:02:05.000Z,952.7
2019-04-04T14:03:27.000Z,952.7
2019-04-04T14:04:50.000Z,952.7
2019-04-04T14:06:12.000Z,952.8
2019-04-04T14:07:34.000Z,952.8
2019-04-04T14:08:57.034Z,952.7
2019-04-04T14:10:19.000Z,952.7
2019-04-04T14:11:41.000Z,952.7
2019-04-04T14:14:07.000Z,952.7
2019-04-04T14:15:29.000Z,952.8
2019-04-04T14:16:52.000Z,952.8
2019-04-04T14:18:14.000Z,952.8
2019-04-04T14:19:36.000Z,952.8
2019-04-04T14:20:59.000Z,952.8
2019-04-04T14:22:21.000Z,952.9
2019-04-04T14:23:43.000Z,952.9
2019-04-04T14:25:06.000Z,952.9
2019-04-04T14:26:28.000Z,952.9
2019-04-04T14:27:41.000Z,952.9
2019-04-04T14:28:54.000Z,953
2019-04-04T14:30:16.000Z,953
2019-04-04T14:31:38.000Z,953
2019-04-04T14:33:01.000Z,953
2019-04-04T14:34:23.000Z,953.1
2019-04-04T14:35:45.000Z,953.1
2019-04-04T14:37:08.000Z,953.2
2019-04-04T14:38:30.000Z,953.2
2019-04-04T14:39:52.000Z,953.1
2019-04-04T14:41:15.000Z,953.2
2019-04-04T14:42:28.000Z,953.1
2019-04-04T14:43:41.000Z,953.3
2019-04-04T14:46:25.000Z,953.3
2019-04-04T14:47:48.000Z,953.3
2019-04-04T14:49:10.000Z,953.3
2019-04-04T14:50:32.000Z,953.3
2019-04-04T14:51:55.000Z,953.4
2019-04-04T14:53:17.000Z,953.5
2019-04-04T14:54:39.000Z,953.5
2019-04-04T14:56:02.000Z,953.5
2019-04-04T14:57:14.000Z,953.5
2019-04-04T14:58:27.000Z,953.5
2019-04-04T14:59:50.000Z,953.5
2019-04-04T15:01:12.000Z,953.6
2019-04-04T15:02:34.000Z,953.6
2019-04-04T15:03:57.000Z,953.7
2019-04-04T15:05:19.000Z,953.6
2019-04-04T15:06:41.000Z,953.6
2019-04-04T15:08:04.000Z,953.6
2019-04-04T15:09:26.000Z,953.6
2019-04-04T15:10:48.000Z,953.7
2019-04-04T15:12:01.000Z,953.6
2019-04-04T15:13:14.000Z,953.6
2019-04-04T15:14:36.000Z,953.6
2019-04-04T15:15:59.000Z,953.7
2019-04-04T15:17:21.000Z,953.7
2019-04-04T15:18:43.000Z,953.6
2019-04-04T15:20:06.000Z,953.7
2019-04-04T15:21:28.000Z,953.8
2019-04-04T15:22:50.000Z,953.8
2019-04-04T15:24:13.000Z,954
2019-04-04T15:25:35.000Z,954
2019-04-04T15:28:01.000Z,954.1
2019-04-04T15:29:23.000Z,954.1
2019-04-04T15:30:46.000Z,954
2019-04-04T15:32:08.000Z,954.1
2019-04-04T15:33:30.000Z,954.1
2019-04-04T15:34:53.000Z,954.1
2019-04-04T15:36:15.000Z,954.2
2019-04-04T15:37:37.000Z,954.1
2019-04-04T15:39:00.000Z,954.1
2019-04-04T15:40:22.000Z,954.1
2019-04-04T15:41:35.000Z,954.2
2019-04-04T15:42:48.000Z,954.3
2019-04-04T15:44:10.000Z,954.4
2019-04-04T15:45:32.000Z,954.5
2019-04-04T15:46:55.000Z,954.5
2019-04-04T15:48:17.000Z,954.6
2019-04-04T15:51:02.000Z,954.7
2019-04-04T15:53:46.000Z,954.8
2019-04-04T15:55:09.000Z,954.9
2019-04-04T15:56:22.000Z,954.8
2019-04-04T15:57:34.000Z,955
2019-04-04T15:58:57.000Z,955
2019-04-04T16:00:19.000Z,955
2019-04-04T16:01:41.000Z,955
2019-04-04T16:03:04.000Z,955
2019-04-04T16:04:26.000Z,955.2
2019-04-04T16:05:48.000Z,955.1
2019-04-04T16:07:11.000Z,955.2
2019-04-04T16:08:33.000Z,955.1
2019-04-04T16:09:55.000Z,955.3
2019-04-04T16:11:08.000Z,955.2
2019-04-04T16:12:21.000Z,955.2
2019-04-04T16:13:44.000Z,955.3
2019-04-04T16:15:06.000Z,955.3
2019-04-04T16:16:28.000Z,955.3
2019-04-04T16:17:51.000Z,955.4
2019-04-04T16:19:13.000Z,955.4
2019-04-04T16:20:35.000Z,955.5
2019-04-04T16:21:58.000Z,955.5
2019-04-04T16:23:20.000Z,955.5
2019-04-04T16:24:42.000Z,955.6
2019-04-04T16:25:55.000Z,955.7
2019-04-04T16:27:08.000Z,955.6
2019-04-04T16:28:30.000Z,955.6
2019-04-04T16:29:53.000Z,955.7
2019-04-04T16:31:15.000Z,955.7
2019-04-04T16:32:37.000Z,955.7
2019-04-04T16:34:00.000Z,955.7
2019-04-04T16:35:22.000Z,955.8
2019-04-04T16:36:44.000Z,955.8
2019-04-04T16:38:07.000Z,955.8
2019-04-04T16:39:29.000Z,955.8
2019-04-04T16:41:55.000Z,955.9
2019-04-04T16:43:17.000Z,955.9
2019-04-04T16:44:39.000Z,955.9
2019-04-04T16:46:02.000Z,956
2019-04-04T16:47:24.000Z,956
2019-04-04T16:48:46.000Z,956
2019-04-04T16:50:09.000Z,956.1
2019-04-04T16:51:31.000Z,956.2
2019-04-04T16:52:53.000Z,956.2
2019-04-04T16:54:16.000Z,956.3
2019-04-04T16:55:29.000Z,956.3
2019-04-04T16:56:42.000Z,956.3
2019-04-04T16:58:04.000Z,956.3
2019-04-04T16:59:26.000Z,956.3
2019-04-04T17:00:49.000Z,956.3
2019-04-04T17:03:33.000Z,956.3
2019-04-04T17:04:56.000Z,956.4
2019-04-04T17:06:18.000Z,956.4
2019-04-04T17:07:40.000Z,956.4
2019-04-04T17:09:02.000Z,956.5
2019-04-04T17:10:15.000Z,956.5
2019-04-04T17:11:28.000Z,956.6
2019-04-04T17:12:51.000Z,956.6
2019-04-04T17:14:13.000Z,956.7
2019-04-04T17:15:35.000Z,956.8
2019-04-04T17:16:58.000Z,956.8
2019-04-04T17:18:20.000Z,956.8
2019-04-04T17:19:42.000Z,956.9
2019-04-04T17:21:05.000Z,956.9
2019-04-04T17:23:49.000Z,956.9
2019-04-04T17:25:02.000Z,957.1
2019-04-04T17:26:15.000Z,957.1
2019-04-04T17:27:37.000Z,957.2
2019-04-04T17:29:00.000Z,957.2
2019-04-04T17:30:22.000Z,957.2
2019-04-04T17:31:44.000Z,957.3
2019-04-04T17:33:07.000Z,957.2
2019-04-04T17:34:29.000Z,957.2
2019-04-04T17:35:51.000Z,957.2
2019-04-04T17:37:14.000Z,957.2
2019-04-04T17:38:36.000Z,957.2
2019-04-04T17:39:49.000Z,957.3
2019-04-04T17:41:02.000Z,957.4
2019-04-04T17:42:24.000Z,957.3
2019-04-04T17:43:47.000Z,957.4
2019-04-04T17:45:09.000Z,957.4
2019-04-04T17:46:31.000Z,957.5
2019-04-04T17:47:54.000Z,957.6
2019-04-04T17:49:16.000Z,957.9
2019-04-04T17:50:38.000Z,957.9
2019-04-04T17:52:00.000Z,957.9
2019-04-04T17:53:23.000Z,957.9
2019-04-04T17:55:49.000Z,958
2019-04-04T17:57:11.000Z,958
2019-04-04T17:58:33.000Z,958.1
2019-04-04T17:59:56.000Z,958.1
2019-04-04T18:01:18.000Z,958.2
2019-04-04T18:02:40.000Z,958.2
2019-04-04T18:04:03.000Z,958.2
2019-04-04T18:05:25.000Z,958.2
2019-04-04T18:06:47.000Z,958.3
2019-04-04T18:08:10.000Z,958.3
2019-04-04T18:09:23.000Z,958.4
2019-04-04T18:10:35.000Z,958.4
2019-04-04T18:11:58.000Z,958.4
2019-04-04T18:13:20.000Z,958.5
2019-04-04T18:14:42.000Z,958.5
2019-04-04T18:16:05.000Z,958.6
2019-04-04T18:18:49.000Z,958.6
2019-04-04T18:20:12.000Z,958.6
2019-04-04T18:21:34.000Z,958.6
2019-04-04T18:22:56.000Z,958.6
2019-04-04T18:24:09.000Z,958.6
2019-04-04T18:25:22.000Z,958.6
2019-04-04T18:26:45.000Z,958.6
2019-04-04T18:28:07.000Z,958.6
2019-04-04T18:29:29.000Z,958.6
2019-04-04T18:30:52.000Z,958.6
2019-04-04T18:32:14.000Z,958.7
2019-04-04T18:33:36.000Z,958.8
2019-04-04T18:34:58.000Z,958.9
2019-04-04T18:36:21.000Z,958.9
2019-04-04T18:37:43.000Z,958.9
2019-04-04T18:38:56.000Z,958.8
2019-04-04T18:40:09.000Z,958.8
2019-04-04T18:41:31.000Z,958.7
2019-04-04T18:42:54.000Z,958.7
2019-04-04T18:44:16.000Z,958.6
2019-04-04T18:45:38.000Z,958.7
2019-04-04T18:48:23.000Z,958.7
2019-04-04T18:49:45.000Z,958.8
2019-04-04T18:52:30.000Z,958.9
2019-04-04T18:53:43.000Z,958.9
2019-04-04T18:57:40.000Z,958.9
2019-04-04T18:59:03.000Z,959
2019-04-04T19:00:25.000Z,959
2019-04-04T19:03:10.000Z,959
2019-04-04T19:05:54.000Z,958.9
2019-04-04T19:07:17.000Z,959
2019-04-04T19:09:43.000Z,959
2019-04-04T19:11:05.000Z,959.1
2019-04-04T19:12:27.000Z,959.1
2019-04-04T19:13:50.000Z,959.2
2019-04-04T19:15:12.000Z,959.3
2019-04-04T19:16:34.000Z,959.4
2019-04-04T19:17:56.000Z,959.5
2019-04-04T19:19:19.000Z,959.5
2019-04-04T19:20:41.000Z,959.6
2019-04-04T19:22:03.000Z,959.5
2019-04-04T19:25:52.000Z,959.7
2019-04-04T19:27:14.000Z,959.7
2019-04-04T19:28:36.000Z,959.8
2019-04-04T19:29:59.000Z,959.8
2019-04-04T19:32:43.000Z,960
2019-04-04T19:34:06.000Z,960.1
2019-04-04T19:35:28.000Z,960.2
2019-04-04T19:36:50.000Z,960.1
2019-04-04T19:38:03.000Z,960.1
2019-04-04T19:39:16.000Z,960.1
2019-04-04T19:46:08.000Z,960
2019-04-04T19:47:30.000Z,959.9
2019-04-04T19:50:15.000Z,960
2019-04-04T19:54:03.000Z,959.9
2019-04-04T19:55:25.000Z,959.9
2019-04-04T19:56:48.000Z,959.9
2019-04-04T19:58:10.338Z,959.9
2019-04-04T19:59:32.000Z,959.9
2019-04-04T20:00:54.000Z,959.9
2019-04-04T20:02:17.000Z,959.9
2019-04-04T20:03:39.000Z,959.9
2019-04-04T20:05:01.000Z,960
2019-04-04T20:06:24.000Z,960
2019-04-04T20:07:37.000Z,960.1
2019-04-04T20:08:50.000Z,960
2019-04-04T20:10:12.000Z,960.1
2019-04-04T20:11:34.000Z,960.1
2019-04-04T20:12:57.000Z,960.2
2019-04-04T20:14:19.000Z,960.2
2019-04-04T20:15:41.000Z,960.2
2019-04-04T20:17:04.000Z,960.3
2019-04-04T20:18:26.000Z,960.3
2019-04-04T20:19:48.000Z,960.3
2019-04-04T20:21:11.000Z,960.4
2019-04-04T20:22:23.000Z,960.4
2019-04-04T20:23:36.000Z,960.3
2019-04-04T20:26:21.000Z,960.4
2019-04-04T20:27:43.000Z,960.4
2019-04-04T20:30:28.000Z,960.5
2019-04-04T20:31:50.000Z,960.5
2019-04-04T20:34:35.000Z,960.6
2019-04-04T20:35:57.000Z,960.5
2019-04-04T20:37:10.000Z,960.6
2019-04-04T20:39:46.000Z,960.7
2019-04-04T20:41:08.000Z,960.7
2019-04-04T20:42:30.000Z,960.7
2019-04-04T20:43:52.000Z,960.7
2019-04-04T20:45:15.000Z,960.7
2019-04-04T20:47:59.000Z,960.6
2019-04-04T20:50:44.000Z,960.7
2019-04-04T20:51:57.000Z,960.8
2019-04-04T20:53:10.000Z,960.8
2019-04-04T20:54:32.000Z,960.7
2019-04-04T20:57:17.000Z,960.8
2019-04-04T21:00:02.000Z,960.8
2019-04-04T21:01:24.000Z,960.8
2019-04-04T21:02:46.000Z,960.8
2019-04-04T21:04:09.000Z,960.8
2019-04-04T21:05:31.000Z,960.8
2019-04-04T21:06:44.000Z,960.8
2019-04-04T21:09:19.000Z,960.8
2019-04-04T21:10:41.000Z,960.8
2019-04-04T21:12:04.000Z,960.8
2019-04-04T21:14:48.000Z,960.9
2019-04-04T21:17:33.000Z,960.9
2019-04-04T21:18:55.000Z,960.8
2019-04-04T21:20:18.000Z,960.9
2019-04-04T21:21:31.000Z,960.9
2019-04-04T21:22:44.000Z,960.9
2019-04-04T21:24:06.000Z,961
2019-04-04T21:25:28.000Z,961